Main page
METAR-TAF:

METAR-TAF

Airports :

Damascus International Airport

Damascus, Syria

latitude: 33-25N, longitude: 036-31E, elevation: 608 m

Current weather observation

The report was made 25 minutes ago, at 20:00 UTC
Wind 15 kt from the South/Southwest
Temperature 27°C
Humidity 45%
Pressure 1006 hPa
Visibility 10 km or more
no clouds below 1500 m and no cumulonimbus

METAR: OSDI 282000Z 20015KT CAVOK 27/14 Q1006

Time: 23:25 (20:25 UTC)

Forecast

The report was made 4 hours and 25 minutes ago, at 16:00 UTC
Forecast valid from 28 at 18 UTC to 29 at 24 UTC
Wind 15 kt from the West
Visibility 10 km or more
no clouds below 1500 m and no cumulonimbus
Temporary
from 29 at 12 UTC to 29 at 20 UTC
Wind 15 kt from the Southwest with gusts up to 25 kt

TAF: OSDI 281600Z 2818/2924 26015KT CAVOK TEMPO 2912/2920 22015G25KT

Weather observations and forecasts of more than 4000 airports (METAR and TAF reports).

The available stations are represented by yellow and red dots on the map.

Hover mouse over dot to see the name of the station.

Then click to see weather observations and forecasts.

To change the map : click on the green buttons with a black cross to zoom in, on the green button with a dash to zoom out, or on the green arrows for adjacent maps.


METAR-TAF: